Map

Track Data

SID SEASON NUMBER BASIN SUBBASIN NAME ISO_TIME NATURE LAT LON WMO_WIND WMO_PRES WMO_AGENCY TRACK_TYPE DIST2LAND LANDFALL IFLAG USA_AGENCY USA_ATCF_ID USA_LAT USA_LON USA_RECORD USA_STATUS USA_WIND USA_PRES USA_SSHS USA_R34_NE USA_R34_SE USA_R34_SW USA_R34_NW USA_R50_NE USA_R50_SE USA_R50_SW USA_R50_NW USA_R64_NE USA_R64_SE USA_R64_SW USA_R64_NW USA_POCI USA_ROCI USA_RMW USA_EYE TOKYO_LAT TOKYO_LON TOKYO_GRADE TOKYO_WIND TOKYO_PRES TOKYO_R50_DIR TOKYO_R50_LONG TOKYO_R50_SHORT TOKYO_R30_DIR TOKYO_R30_LONG TOKYO_R30_SHORT TOKYO_LAND CMA_LAT CMA_LON CMA_CAT CMA_WIND CMA_PRES HKO_LAT HKO_LON HKO_CAT HKO_WIND HKO_PRES NEWDELHI_LAT NEWDELHI_LON NEWDELHI_GRADE NEWDELHI_WIND NEWDELHI_PRES NEWDELHI_CI NEWDELHI_DP NEWDELHI_POCI REUNION_LAT REUNION_LON REUNION_TYPE REUNION_WIND REUNION_PRES REUNION_TNUM REUNION_CI REUNION_RMW REUNION_R34_NE REUNION_R34_SE REUNION_R34_SW REUNION_R34_NW REUNION_R50_NE REUNION_R50_SE REUNION_R50_SW REUNION_R50_NW REUNION_R64_NE REUNION_R64_SE REUNION_R64_SW REUNION_R64_NW BOM_LAT BOM_LON BOM_TYPE BOM_WIND BOM_PRES BOM_TNUM BOM_CI BOM_RMW BOM_R34_NE BOM_R34_SE BOM_R34_SW BOM_R34_NW BOM_R50_NE BOM_R50_SE BOM_R50_SW BOM_R50_NW BOM_R64_NE BOM_R64_SE BOM_R64_SW BOM_R64_NW BOM_ROCI BOM_POCI BOM_EYE BOM_POS_METHOD BOM_PRES_METHOD NADI_LAT NADI_LON NADI_CAT NADI_WIND NADI_PRES WELLINGTON_LAT WELLINGTON_LON WELLINGTON_WIND WELLINGTON_PRES DS824_LAT DS824_LON DS824_STAGE DS824_WIND DS824_PRES TD9636_LAT TD9636_LON TD9636_STAGE TD9636_WIND TD9636_PRES TD9635_LAT TD9635_LON TD9635_WIND TD9635_PRES TD9635_ROCI NEUMANN_LAT NEUMANN_LON NEUMANN_CLASS NEUMANN_WIND NEUMANN_PRES MLC_LAT MLC_LON MLC_CLASS MLC_WIND MLC_PRES USA_GUST BOM_GUST BOM_GUST_PER REUNION_GUST REUNION_GUST_PER USA_SEAHGT USA_SEARAD_NE USA_SEARAD_SE USA_SEARAD_SW USA_SEARAD_NW STORM_SPEED STORM_DIR
1871021S09087 1871 5 SI MM NOT_NAMED 1871-01-21 06:00:00 NR -8.70000 87.0000 main 1533 1533 _____O________ -1 -8.70000 87.0000 99 9.90000 2 236
1871021S09087 1871 5 SI MM NOT_NAMED 1871-01-21 09:00:00 NR -8.75876 86.9120 main 1549 1549 _____P________ -1 -8.75876 86.9120 99 2 236
1871021S09087 1871 5 SI MM NOT_NAMED 1871-01-21 12:00:00 NR -8.82024 86.8216 main 1558 1558 _____P________ -1 -8.82024 86.8216 99 2 235
1871021S09087 1871 5 SI MM NOT_NAMED 1871-01-21 15:00:00 NR -8.88719 86.7266 main 1573 1573 _____P________ -1 -8.88719 86.7266 99 2 234
1871021S09087 1871 5 SI MM NOT_NAMED 1871-01-21 18:00:00 NR -8.96236 86.6246 main 1588 1588 _____P________ -1 -8.96236 86.6246 99 3 233
1871021S09087 1871 5 SI MM NOT_NAMED 1871-01-21 21:00:00 NR -9.04849 86.5133 main 1598 1598 _____P________ -1 -9.04849 86.5133 99 4 224
1871021S09087 1871 5 SI MM NOT_NAMED 1871-01-22 00:00:00 NR -9.23865 86.3522 main 1619 1619 _____P____O___ -1 -9.14832 86.3903 99 -9.60000 86.2000 7 5 222
1871021S09087 1871 5 SI MM NOT_NAMED 1871-01-22 03:00:00 NR -9.42329 86.1689 main 1649 1649 _____P____P___ -1 -9.26458 86.2533 99 -9.74072 86.0001 7 5 225
1871021S09087 1871 5 SI MM NOT_NAMED 1871-01-22 06:00:00 NR -9.60790 85.9715 main 1679 1679 _____O____P___ -1 -9.40000 86.1000 99 9.90000 -9.88510 85.8001 7 5 227
1871021S09087 1871 5 SI MM NOT_NAMED 1871-01-22 09:00:00 NR -9.79654 85.7645 main 1710 1710 _____P____P___ -1 -9.55614 85.9289 99 -10.0369 85.6000 7 5 228
1871021S09087 1871 5 SI MM NOT_NAMED 1871-01-22 12:00:00 NR -9.96493 85.5713 main 1740 1740 _____P____O___ -1 -9.72986 85.7426 99 -10.2000 85.4000 7 5 228
1871021S09087 1871 5 SI MM NOT_NAMED 1871-01-22 15:00:00 NR -10.1464 85.3722 main 1765 1765 _____P____P___ -1 -9.91683 85.5444 99 -10.3759 85.2000 7 5 227
1871021S09087 1871 5 SI MM NOT_NAMED 1871-01-22 18:00:00 NR -10.3351 85.1690 main 1795 1795 _____P____P___ -1 -10.1128 85.3380 99 -10.5574 85.0000 7 6 227
1871021S09087 1871 5 SI MM NOT_NAMED 1871-01-22 21:00:00 NR -10.5243 84.9634 main 1825 1825 _____P____P___ -1 -10.3133 85.1268 99 -10.7353 84.8000 7 6 227
1871021S09087 1871 5 SI MM NOT_NAMED 1871-01-23 00:00:00 NR -10.7071 84.7572 main 1856 1856 _____P____O___ -1 -10.5142 84.9144 99 -10.9000 84.6000 7 5 230
1871021S09087 1871 5 SI MM NOT_NAMED 1871-01-23 03:00:00 NR -10.8733 84.5460 main 1895 1895 _____P____P___ -1 -10.7112 84.7042 99 -11.0353 84.3877 7 5 232
1871021S09087 1871 5 SI MM NOT_NAMED 1871-01-23 06:00:00 NR -11.0288 84.3387 main 1920 1920 _____O____P___ -1 -10.9000 84.5000 99 9.90000 -11.1575 84.1774 7 5 233
1871021S09087 1871 5 SI MM NOT_NAMED 1871-01-23 09:00:00 NR -11.1728 84.1432 main 1950 1950 _____P____P___ -1 -11.0696 84.3079 99 -11.2760 83.9784 7 5 232
1871021S09087 1871 5 SI MM NOT_NAMED 1871-01-23 12:00:00 NR -11.3168 83.9596 main 1963 1961 _____P____O___ -1 -11.2336 84.1192 99 -11.4000 83.8000 7 5 229
1871021S09087 1871 5 SI MM NOT_NAMED 1871-01-23 15:00:00 NR -11.4715 83.7940 main 1981 1979 _____P____P___ -1 -11.3921 83.9346 99 -11.5509 83.6534 7 4 225
1871021S09087 1871 5 SI MM NOT_NAMED 1871-01-23 18:00:00 NR -11.6261 83.6411 main 1988 1988 _____P____P___ -1 -11.5449 83.7548 99 -11.7074 83.5275 7 4 224
1871021S09087 1871 5 SI MM NOT_NAMED 1871-01-23 21:00:00 NR -11.7762 83.4968 main 2009 2007 _____P____P___ -1 -11.6921 83.5807 99 -11.8603 83.4128 7 4 224
1871021S09087 1871 5 SI MM NOT_NAMED 1871-01-24 00:00:00 NR -11.9168 83.3565 main 2018 2016 _____P____O___ -1 -11.8337 83.4130 99 -12.0000 83.3000 7 4 226
1871021S09087 1871 5 SI MM NOT_NAMED 1871-01-24 03:00:00 NR -12.0400 83.2158 main 2026 2026 _____P____P___ -1 -11.9697 83.2525 99 -12.1103 83.1790 7 4 229
1871021S09087 1871 5 SI MM NOT_NAMED 1871-01-24 06:00:00 NR -12.1537 83.0787 main 2046 2045 _____O____P___ -1 -12.1000 83.1000 99 9.90000 -12.2075 83.0574 7 3 230
1871021S09087 1871 5 SI MM NOT_NAMED 1871-01-24 09:00:00 NR -12.2617 82.9460 main 2054 2053 _____P____P___ -1 -12.2225 82.9600 99 -12.3009 82.9321 7 3 230
1871021S09087 1871 5 SI MM NOT_NAMED 1871-01-24 12:00:00 NR -12.3691 82.8145 main 2064 2063 _____P____O___ -1 -12.3382 82.8289 99 -12.4000 82.8000 7 3 229
1871021S09087 1871 5 SI MM NOT_NAMED 1871-01-24 15:00:00 NR -12.4834 82.6808 main 2074 2073 _____P____P___ -1 -12.4491 82.7045 99 -12.5178 82.6572 7 4 229
1871021S09087 1871 5 SI MM NOT_NAMED 1871-01-24 18:00:00 NR -12.5998 82.5459 main 2083 2083 _____P____P___ -1 -12.5571 82.5844 99 -12.6425 82.5075 7 4 229
1871021S09087 1871 5 SI MM NOT_NAMED 1871-01-24 21:00:00 NR -12.7176 82.4101 main 2093 2093 _____P____P___ -1 -12.6643 82.4662 99 -12.7709 82.3540 7 4 228
1871021S09087 1871 5 SI MM NOT_NAMED 1871-01-25 00:00:00 NR -12.8363 82.2738 main 2103 2103 _____P____O___ -1 -12.7725 82.3477 99 -12.9000 82.2000 7 4 228
1871021S09087 1871 5 SI MM NOT_NAMED 1871-01-25 03:00:00 NR -12.9524 82.1382 main 2124 2123 _____P____P___ -1 -12.8838 82.2264 99 -13.0209 82.0499 7 4 229
1871021S09087 1871 5 SI MM NOT_NAMED 1871-01-25 06:00:00 NR -13.0712 82.0000 main 2134 2133 _____O____P___ -1 -13.0000 82.1000 99 9.90000 -13.1425 81.8999 7 4 229
1871021S09087 1871 5 SI MM NOT_NAMED 1871-01-25 09:00:00 NR -13.1903 81.8611 main 2144 2144 _____P____P___ -1 -13.1128 81.9723 99 -13.2678 81.7499 7 4 228
1871021S09087 1871 5 SI MM NOT_NAMED 1871-01-25 12:00:00 NR -13.3139 81.7210 main 2154 2154 _____P____O___ -1 -13.2279 81.8420 99 -13.4000 81.6000 7 4 228
1871021S09087 1871 5 SI MM NOT_NAMED 1871-01-25 15:00:00 NR -13.4391 81.5827 main 2165 2165 _____P____P___ -1 -13.3477 81.7073 99 -13.5306 81.4580 7 4 227
1871021S09087 1871 5 SI MM NOT_NAMED 1871-01-25 18:00:00 NR -13.5722 81.4405 main 2186 2186 _____P____P___ -1 -13.4746 81.5662 99 -13.6699 81.3148 7 4 226
1871021S09087 1871 5 SI MM NOT_NAMED 1871-01-25 21:00:00 NR -13.7176 81.2905 main 2197 2197 _____P____P___ -1 -13.6109 81.4169 99 -13.8243 81.1642 7 4 225
1871021S09087 1871 5 SI MM NOT_NAMED 1871-01-26 00:00:00 NR -13.8795 81.1287 main 2218 2218 _____P____O___ -1 -13.7590 81.2574 99 -14.0000 81.0000 7 5 223
1871021S09087 1871 5 SI MM NOT_NAMED 1871-01-26 03:00:00 NR -14.0603 80.9561 main 2241 2240 _____P____P___ -1 -13.9212 81.0857 99 -14.1993 80.8265 7 5 222
1871021S09087 1871 5 SI MM NOT_NAMED 1871-01-26 06:00:00 NR -14.2599 80.7687 main 2263 2263 _____O____P___ -1 -14.1000 80.9000 99 9.90000 -14.4199 80.6373 7 6 223
1871021S09087 1871 5 SI MM NOT_NAMED 1871-01-26 09:00:00 NR -14.4828 80.5568 main 2285 2285 _____P____P___ -1 -14.3101 80.6841 99 -14.6555 80.4295 7 6 223
1871021S09087 1871 5 SI MM NOT_NAMED 1871-01-26 12:00:00 NR -14.7191 80.3260 main 2308 2308 _____P____O___ -1 -14.5383 80.4519 99 -14.9000 80.2000 7 7 224
1871021S09087 1871 5 SI MM NOT_NAMED 1871-01-26 15:00:00 NR -14.9637 80.0779 main 2342 2342 _____P____P___ -1 -14.7793 80.2085 99 -15.1480 79.9472 7 7 225
1871021S09087 1871 5 SI MM NOT_NAMED 1871-01-26 18:00:00 NR -15.1866 79.8375 main 2365 2365 _____P____P___ -1 -15.0282 79.9589 99 -15.3979 79.6756 7 6 226
1871021S09087 1871 5 SI MM NOT_NAMED 1871-01-26 21:00:00 NR -15.4028 79.6025 main 2369 2342 _____P____P___ -1 -15.2798 79.7081 99 -15.6488 79.3912 7 6 226
1871021S09087 1871 5 SI MM NOT_NAMED 1871-01-27 00:00:00 NR -15.6032 79.3890 main 2342 2316 _____P____O___ -1 -15.5290 79.4612 99 -15.9000 79.1000 7 5 225
1871021S09087 1871 5 SI MM NOT_NAMED 1871-01-27 03:00:00 NR -15.7707 79.2235 main 2316 2289 _____P________ -1 -15.7707 79.2235 99 7 5 223
1871021S09087 1871 5 SI MM NOT_NAMED 1871-01-27 06:00:00 NR -16.0000 79.0000 reunion main 2289 2263 _____O________ -1 -16.0000 79.0000 99 9.90000 7 6 223
1871021S09087 1871 5 SI MM NOT_NAMED 1871-01-27 09:00:00 NR -16.2130 78.7948 main 2263 2236 _____P________ -1 -16.2130 78.7948 99 7 6 223
1871021S09087 1871 5 SI MM NOT_NAMED 1871-01-27 12:00:00 NR -16.4109 78.6067 main 2236 2210 _____P________ -1 -16.4109 78.6067 99 5 222
1871021S09087 1871 5 SI MM NOT_NAMED 1871-01-27 15:00:00 NR -16.5956 78.4332 main 2210 2194 _____P________ -1 -16.5956 78.4332 99 5 222
1871021S09087 1871 5 SI MM NOT_NAMED 1871-01-27 18:00:00 NR -16.7695 78.2720 main 2194 2171 _____P________ -1 -16.7695 78.2720 99 5 221
1871021S09087 1871 5 SI MM NOT_NAMED 1871-01-27 21:00:00 NR -16.9348 78.1206 main 2171 2156 _____P________ -1 -16.9348 78.1206 99 4 221
1871021S09087 1871 5 SI MM NOT_NAMED 1871-01-28 00:00:00 NR -17.0935 77.9764 main 2156 2132 _____P________ -1 -17.0935 77.9764 99 4 221
1871021S09087 1871 5 SI MM NOT_NAMED 1871-01-28 03:00:00 NR -17.2479 77.8371 main 2132 2117 _____P________ -1 -17.2479 77.8371 99 4 221
1871021S09087 1871 5 SI MM NOT_NAMED 1871-01-28 06:00:00 NR -17.4000 77.7000 reunion main 2117 _____O________ -1 -17.4000 77.7000 99 9.90000 4 221

About IBTrACS Database

This database is a web-friendly format of International Best Track Archive for Climate Stewardship (IBTrACS), a global best track data archive curated by NOAA dating back to 1842.

Updated: 2021-10-21